sensor_id;sensor_type;location;lat;lon;timestamp;P1;durP1;ratioP1;P2;durP2;ratioP2
13891;SDS011;7016;48.172;8.058;2023-06-22T00:00:08;10.20;;;6.45;;
13891;SDS011;7016;48.172;8.058;2023-06-22T00:02:57;12.35;;;6.45;;
13891;SDS011;7016;48.172;8.058;2023-06-22T00:05:44;11.98;;;6.28;;
13891;SDS011;7016;48.172;8.058;2023-06-22T00:08:34;12.25;;;6.57;;
13891;SDS011;7016;48.172;8.058;2023-06-22T00:11:20;10.57;;;5.97;;
13891;SDS011;7016;48.172;8.058;2023-06-22T00:14:06;11.10;;;6.38;;
13891;SDS011;7016;48.172;8.058;2023-06-22T00:16:52;10.88;;;5.90;;
13891;SDS011;7016;48.172;8.058;2023-06-22T00:19:42;16.83;;;6.35;;
13891;SDS011;7016;48.172;8.058;2023-06-22T00:22:29;12.05;;;6.47;;
13891;SDS011;7016;48.172;8.058;2023-06-22T00:25:15;9.38;;;6.07;;
13891;SDS011;7016;48.172;8.058;2023-06-22T00:28:01;13.02;;;6.70;;
13891;SDS011;7016;48.172;8.058;2023-06-22T00:30:49;13.13;;;6.50;;
13891;SDS011;7016;48.172;8.058;2023-06-22T00:33:35;10.80;;;5.88;;
13891;SDS011;7016;48.172;8.058;2023-06-22T00:36:21;13.30;;;6.55;;
13891;SDS011;7016;48.172;8.058;2023-06-22T00:39:10;15.20;;;6.63;;
13891;SDS011;7016;48.172;8.058;2023-06-22T00:41:56;8.98;;;6.35;;
13891;SDS011;7016;48.172;8.058;2023-06-22T00:44:42;13.98;;;6.45;;
13891;SDS011;7016;48.172;8.058;2023-06-22T00:47:30;12.77;;;5.97;;
13891;SDS011;7016;48.172;8.058;2023-06-22T00:50:18;12.95;;;6.28;;
13891;SDS011;7016;48.172;8.058;2023-06-22T00:53:08;14.60;;;6.60;;
13891;SDS011;7016;48.172;8.058;2023-06-22T00:55:55;9.90;;;6.68;;
13891;SDS011;7016;48.172;8.058;2023-06-22T00:58:41;12.45;;;6.60;;
13891;SDS011;7016;48.172;8.058;2023-06-22T01:01:27;15.57;;;7.10;;
13891;SDS011;7016;48.172;8.058;2023-06-22T01:04:14;13.10;;;7.22;;
13891;SDS011;7016;48.172;8.058;2023-06-22T01:07:03;13.70;;;7.22;;
13891;SDS011;7016;48.172;8.058;2023-06-22T01:13:21;10.70;;;6.45;;
13891;SDS011;7016;48.172;8.058;2023-06-22T01:16:33;15.35;;;7.40;;
13891;SDS011;7016;48.172;8.058;2023-06-22T01:22:36;13.93;;;7.05;;
13891;SDS011;7016;48.172;8.058;2023-06-22T01:25:46;12.93;;;6.90;;
13891;SDS011;7016;48.172;8.058;2023-06-22T01:31:30;13.27;;;6.88;;
13891;SDS011;7016;48.172;8.058;2023-06-22T01:34:18;21.83;;;7.10;;
13891;SDS011;7016;48.172;8.058;2023-06-22T01:37:05;17.83;;;7.28;;
13891;SDS011;7016;48.172;8.058;2023-06-22T01:39:52;13.35;;;7.38;;
13891;SDS011;7016;48.172;8.058;2023-06-22T01:42:40;14.70;;;6.97;;
13891;SDS011;7016;48.172;8.058;2023-06-22T01:45:28;18.10;;;7.53;;
13891;SDS011;7016;48.172;8.058;2023-06-22T01:48:15;12.90;;;7.22;;
13891;SDS011;7016;48.172;8.058;2023-06-22T01:51:02;12.65;;;6.78;;
13891;SDS011;7016;48.172;8.058;2023-06-22T01:53:48;16.45;;;7.60;;
13891;SDS011;7016;48.172;8.058;2023-06-22T01:56:35;11.90;;;7.30;;
13891;SDS011;7016;48.172;8.058;2023-06-22T01:59:25;15.23;;;7.30;;
13891;SDS011;7016;48.172;8.058;2023-06-22T02:02:20;16.92;;;7.25;;
13891;SDS011;7016;48.172;8.058;2023-06-22T02:05:12;14.23;;;6.75;;
13891;SDS011;7016;48.172;8.058;2023-06-22T02:08:09;13.55;;;7.32;;
13891;SDS011;7016;48.172;8.058;2023-06-22T02:11:04;15.68;;;7.28;;
13891;SDS011;7016;48.172;8.058;2023-06-22T02:13:51;17.60;;;7.47;;
13891;SDS011;7016;48.172;8.058;2023-06-22T02:16:38;16.38;;;7.43;;
13891;SDS011;7016;48.172;8.058;2023-06-22T02:19:26;17.33;;;7.55;;
13891;SDS011;7016;48.172;8.058;2023-06-22T02:22:13;15.35;;;7.35;;
13891;SDS011;7016;48.172;8.058;2023-06-22T02:24:59;21.83;;;7.82;;
13891;SDS011;7016;48.172;8.058;2023-06-22T02:27:45;15.70;;;7.85;;
13891;SDS011;7016;48.172;8.058;2023-06-22T02:30:32;15.55;;;7.43;;
13891;SDS011;7016;48.172;8.058;2023-06-22T02:33:18;14.82;;;8.00;;
13891;SDS011;7016;48.172;8.058;2023-06-22T02:36:05;12.82;;;7.57;;
13891;SDS011;7016;48.172;8.058;2023-06-22T02:38:54;13.77;;;7.75;;
13891;SDS011;7016;48.172;8.058;2023-06-22T02:41:43;17.42;;;7.82;;
13891;SDS011;7016;48.172;8.058;2023-06-22T02:44:29;17.80;;;7.95;;
13891;SDS011;7016;48.172;8.058;2023-06-22T02:47:15;18.55;;;7.40;;
13891;SDS011;7016;48.172;8.058;2023-06-22T02:50:01;14.63;;;7.78;;
13891;SDS011;7016;48.172;8.058;2023-06-22T02:52:47;13.93;;;7.28;;
13891;SDS011;7016;48.172;8.058;2023-06-22T02:55:34;16.58;;;7.97;;
13891;SDS011;7016;48.172;8.058;2023-06-22T02:58:20;19.30;;;8.48;;
13891;SDS011;7016;48.172;8.058;2023-06-22T03:01:07;15.68;;;7.15;;
13891;SDS011;7016;48.172;8.058;2023-06-22T03:03:53;13.70;;;7.50;;
13891;SDS011;7016;48.172;8.058;2023-06-22T03:06:40;16.48;;;7.35;;
13891;SDS011;7016;48.172;8.058;2023-06-22T03:09:26;11.82;;;7.32;;
13891;SDS011;7016;48.172;8.058;2023-06-22T03:12:13;13.90;;;7.00;;
13891;SDS011;7016;48.172;8.058;2023-06-22T03:14:59;17.10;;;8.38;;
13891;SDS011;7016;48.172;8.058;2023-06-22T03:17:45;15.15;;;8.38;;
13891;SDS011;7016;48.172;8.058;2023-06-22T03:20:33;16.42;;;7.93;;
13891;SDS011;7016;48.172;8.058;2023-06-22T03:23:19;17.55;;;7.28;;
13891;SDS011;7016;48.172;8.058;2023-06-22T03:26:05;17.70;;;8.70;;
13891;SDS011;7016;48.172;8.058;2023-06-22T03:28:51;14.88;;;7.68;;
13891;SDS011;7016;48.172;8.058;2023-06-22T03:31:37;19.13;;;7.57;;
13891;SDS011;7016;48.172;8.058;2023-06-22T03:34:24;15.38;;;8.30;;
13891;SDS011;7016;48.172;8.058;2023-06-22T03:37:10;18.17;;;8.65;;
13891;SDS011;7016;48.172;8.058;2023-06-22T03:39:56;22.88;;;9.23;;
13891;SDS011;7016;48.172;8.058;2023-06-22T03:42:42;19.20;;;9.27;;
13891;SDS011;7016;48.172;8.058;2023-06-22T03:45:28;20.23;;;8.80;;
13891;SDS011;7016;48.172;8.058;2023-06-22T03:48:14;22.95;;;8.88;;
13891;SDS011;7016;48.172;8.058;2023-06-22T03:51:01;18.15;;;9.48;;
13891;SDS011;7016;48.172;8.058;2023-06-22T03:53:51;23.45;;;9.32;;
13891;SDS011;7016;48.172;8.058;2023-06-22T03:56:37;18.42;;;8.50;;
13891;SDS011;7016;48.172;8.058;2023-06-22T03:59:24;14.95;;;8.48;;
13891;SDS011;7016;48.172;8.058;2023-06-22T04:02:10;15.98;;;8.07;;
13891;SDS011;7016;48.172;8.058;2023-06-22T04:04:56;15.25;;;8.50;;
13891;SDS011;7016;48.172;8.058;2023-06-22T04:07:42;15.73;;;7.95;;
13891;SDS011;7016;48.172;8.058;2023-06-22T04:10:29;18.65;;;8.57;;
13891;SDS011;7016;48.172;8.058;2023-06-22T04:13:15;14.88;;;8.35;;
13891;SDS011;7016;48.172;8.058;2023-06-22T04:16:01;20.77;;;9.13;;
13891;SDS011;7016;48.172;8.058;2023-06-22T04:18:47;16.45;;;7.93;;
13891;SDS011;7016;48.172;8.058;2023-06-22T04:21:33;15.88;;;7.85;;
13891;SDS011;7016;48.172;8.058;2023-06-22T04:24:19;13.77;;;7.72;;
13891;SDS011;7016;48.172;8.058;2023-06-22T04:27:06;19.05;;;8.75;;
13891;SDS011;7016;48.172;8.058;2023-06-22T04:29:52;16.58;;;9.05;;
13891;SDS011;7016;48.172;8.058;2023-06-22T04:32:38;16.63;;;8.48;;
13891;SDS011;7016;48.172;8.058;2023-06-22T04:35:26;17.08;;;8.38;;
13891;SDS011;7016;48.172;8.058;2023-06-22T04:38:13;14.25;;;8.07;;
13891;SDS011;7016;48.172;8.058;2023-06-22T04:41:00;15.00;;;8.07;;
13891;SDS011;7016;48.172;8.058;2023-06-22T04:43:47;16.52;;;7.65;;
13891;SDS011;7016;48.172;8.058;2023-06-22T04:46:39;13.65;;;7.70;;
13891;SDS011;7016;48.172;8.058;2023-06-22T04:49:26;16.50;;;8.07;;
13891;SDS011;7016;48.172;8.058;2023-06-22T04:52:21;19.02;;;7.90;;
13891;SDS011;7016;48.172;8.058;2023-06-22T04:55:08;19.60;;;8.80;;
13891;SDS011;7016;48.172;8.058;2023-06-22T04:57:54;15.70;;;8.43;;
13891;SDS011;7016;48.172;8.058;2023-06-22T05:00:40;20.38;;;9.20;;
13891;SDS011;7016;48.172;8.058;2023-06-22T05:03:26;19.20;;;9.38;;
13891;SDS011;7016;48.172;8.058;2023-06-22T05:06:13;15.85;;;9.13;;
13891;SDS011;7016;48.172;8.058;2023-06-22T05:09:00;15.73;;;8.60;;
13891;SDS011;7016;48.172;8.058;2023-06-22T05:11:46;14.45;;;8.48;;
13891;SDS011;7016;48.172;8.058;2023-06-22T05:14:32;16.15;;;7.95;;
13891;SDS011;7016;48.172;8.058;2023-06-22T05:17:19;13.38;;;7.82;;
13891;SDS011;7016;48.172;8.058;2023-06-22T05:20:05;17.42;;;7.78;;
13891;SDS011;7016;48.172;8.058;2023-06-22T05:22:52;14.27;;;8.05;;
13891;SDS011;7016;48.172;8.058;2023-06-22T05:25:38;11.77;;;7.38;;
13891;SDS011;7016;48.172;8.058;2023-06-22T05:28:25;12.18;;;7.70;;
13891;SDS011;7016;48.172;8.058;2023-06-22T05:31:12;15.50;;;7.75;;
13891;SDS011;7016;48.172;8.058;2023-06-22T05:33:59;16.10;;;7.80;;
13891;SDS011;7016;48.172;8.058;2023-06-22T05:36:46;15.40;;;7.70;;
13891;SDS011;7016;48.172;8.058;2023-06-22T05:39:32;18.73;;;8.63;;
13891;SDS011;7016;48.172;8.058;2023-06-22T05:42:18;17.15;;;7.93;;
13891;SDS011;7016;48.172;8.058;2023-06-22T05:45:04;15.68;;;7.90;;
13891;SDS011;7016;48.172;8.058;2023-06-22T05:47:51;15.85;;;8.45;;
13891;SDS011;7016;48.172;8.058;2023-06-22T05:50:37;14.30;;;7.70;;
13891;SDS011;7016;48.172;8.058;2023-06-22T05:53:23;16.25;;;9.05;;
13891;SDS011;7016;48.172;8.058;2023-06-22T05:56:09;18.00;;;9.30;;
13891;SDS011;7016;48.172;8.058;2023-06-22T05:58:56;28.45;;;11.07;;
13891;SDS011;7016;48.172;8.058;2023-06-22T06:01:42;22.23;;;9.88;;
13891;SDS011;7016;48.172;8.058;2023-06-22T06:04:28;19.85;;;9.98;;
13891;SDS011;7016;48.172;8.058;2023-06-22T06:07:14;21.50;;;10.00;;
13891;SDS011;7016;48.172;8.058;2023-06-22T06:10:00;15.93;;;8.60;;
13891;SDS011;7016;48.172;8.058;2023-06-22T06:12:46;15.88;;;9.25;;
13891;SDS011;7016;48.172;8.058;2023-06-22T06:15:34;15.13;;;8.35;;
13891;SDS011;7016;48.172;8.058;2023-06-22T06:18:20;18.35;;;8.60;;
13891;SDS011;7016;48.172;8.058;2023-06-22T06:21:06;19.52;;;8.35;;
13891;SDS011;7016;48.172;8.058;2023-06-22T06:23:52;18.88;;;7.78;;
13891;SDS011;7016;48.172;8.058;2023-06-22T06:26:39;17.27;;;7.90;;
13891;SDS011;7016;48.172;8.058;2023-06-22T06:29:25;13.95;;;7.70;;
13891;SDS011;7016;48.172;8.058;2023-06-22T06:32:11;16.58;;;7.47;;
13891;SDS011;7016;48.172;8.058;2023-06-22T06:34:57;15.77;;;7.32;;
13891;SDS011;7016;48.172;8.058;2023-06-22T06:37:44;14.20;;;7.43;;
13891;SDS011;7016;48.172;8.058;2023-06-22T06:40:31;16.63;;;8.10;;
13891;SDS011;7016;48.172;8.058;2023-06-22T06:43:18;17.85;;;8.52;;
13891;SDS011;7016;48.172;8.058;2023-06-22T06:46:04;14.52;;;8.15;;
13891;SDS011;7016;48.172;8.058;2023-06-22T06:48:50;17.40;;;7.35;;
13891;SDS011;7016;48.172;8.058;2023-06-22T06:51:36;13.43;;;7.05;;
13891;SDS011;7016;48.172;8.058;2023-06-22T06:54:22;18.02;;;8.35;;
13891;SDS011;7016;48.172;8.058;2023-06-22T06:57:09;19.92;;;8.02;;
13891;SDS011;7016;48.172;8.058;2023-06-22T06:59:56;21.50;;;9.02;;
13891;SDS011;7016;48.172;8.058;2023-06-22T07:02:43;16.58;;;8.57;;
13891;SDS011;7016;48.172;8.058;2023-06-22T07:05:30;18.92;;;9.40;;
13891;SDS011;7016;48.172;8.058;2023-06-22T07:08:17;22.10;;;9.98;;
13891;SDS011;7016;48.172;8.058;2023-06-22T07:11:03;19.60;;;12.00;;
13891;SDS011;7016;48.172;8.058;2023-06-22T07:13:49;22.65;;;12.55;;
13891;SDS011;7016;48.172;8.058;2023-06-22T07:16:35;28.92;;;13.65;;
13891;SDS011;7016;48.172;8.058;2023-06-22T07:19:25;27.13;;;15.43;;
13891;SDS011;7016;48.172;8.058;2023-06-22T07:22:14;28.08;;;15.15;;
13891;SDS011;7016;48.172;8.058;2023-06-22T07:25:01;32.25;;;15.60;;
13891;SDS011;7016;48.172;8.058;2023-06-22T07:27:57;25.13;;;13.57;;
13891;SDS011;7016;48.172;8.058;2023-06-22T07:30:44;26.45;;;13.65;;
13891;SDS011;7016;48.172;8.058;2023-06-22T07:33:31;25.05;;;14.70;;
13891;SDS011;7016;48.172;8.058;2023-06-22T07:36:18;26.38;;;14.73;;
13891;SDS011;7016;48.172;8.058;2023-06-22T07:39:04;24.20;;;13.15;;
13891;SDS011;7016;48.172;8.058;2023-06-22T07:41:51;17.50;;;10.98;;
13891;SDS011;7016;48.172;8.058;2023-06-22T07:44:38;20.08;;;9.38;;
13891;SDS011;7016;48.172;8.058;2023-06-22T07:47:24;15.23;;;9.40;;
13891;SDS011;7016;48.172;8.058;2023-06-22T07:50:13;18.23;;;10.00;;
13891;SDS011;7016;48.172;8.058;2023-06-22T07:53:00;25.05;;;10.65;;
13891;SDS011;7016;48.172;8.058;2023-06-22T07:55:46;25.23;;;11.55;;
13891;SDS011;7016;48.172;8.058;2023-06-22T07:58:32;24.15;;;13.18;;
13891;SDS011;7016;48.172;8.058;2023-06-22T08:01:18;18.58;;;11.45;;
13891;SDS011;7016;48.172;8.058;2023-06-22T08:04:07;27.60;;;13.18;;
13891;SDS011;7016;48.172;8.058;2023-06-22T08:06:54;20.48;;;12.52;;
13891;SDS011;7016;48.172;8.058;2023-06-22T08:09:42;24.38;;;12.25;;
13891;SDS011;7016;48.172;8.058;2023-06-22T08:12:32;24.85;;;11.02;;
13891;SDS011;7016;48.172;8.058;2023-06-22T08:15:18;20.50;;;11.05;;
13891;SDS011;7016;48.172;8.058;2023-06-22T08:18:05;18.70;;;10.82;;
13891;SDS011;7016;48.172;8.058;2023-06-22T08:20:51;14.90;;;8.85;;
13891;SDS011;7016;48.172;8.058;2023-06-22T08:23:37;22.75;;;9.68;;
13891;SDS011;7016;48.172;8.058;2023-06-22T08:26:23;19.08;;;8.85;;
13891;SDS011;7016;48.172;8.058;2023-06-22T08:29:09;17.80;;;8.75;;
13891;SDS011;7016;48.172;8.058;2023-06-22T08:31:56;20.80;;;8.70;;
13891;SDS011;7016;48.172;8.058;2023-06-22T08:34:42;19.05;;;8.15;;
13891;SDS011;7016;48.172;8.058;2023-06-22T08:37:28;18.58;;;8.15;;
13891;SDS011;7016;48.172;8.058;2023-06-22T08:40:20;15.30;;;8.05;;
13891;SDS011;7016;48.172;8.058;2023-06-22T08:43:07;19.92;;;8.43;;
13891;SDS011;7016;48.172;8.058;2023-06-22T08:45:53;16.90;;;7.97;;
13891;SDS011;7016;48.172;8.058;2023-06-22T08:48:39;20.77;;;9.27;;
13891;SDS011;7016;48.172;8.058;2023-06-22T08:51:26;20.17;;;9.23;;
13891;SDS011;7016;48.172;8.058;2023-06-22T08:54:12;19.13;;;9.38;;
13891;SDS011;7016;48.172;8.058;2023-06-22T08:56:59;19.88;;;9.35;;
13891;SDS011;7016;48.172;8.058;2023-06-22T08:59:45;14.65;;;8.27;;
13891;SDS011;7016;48.172;8.058;2023-06-22T09:02:31;15.57;;;8.85;;
13891;SDS011;7016;48.172;8.058;2023-06-22T09:05:18;18.92;;;9.18;;
13891;SDS011;7016;48.172;8.058;2023-06-22T09:08:04;18.35;;;8.48;;
13891;SDS011;7016;48.172;8.058;2023-06-22T09:10:50;16.60;;;8.48;;
13891;SDS011;7016;48.172;8.058;2023-06-22T09:13:36;20.08;;;9.43;;
13891;SDS011;7016;48.172;8.058;2023-06-22T09:16:22;19.48;;;9.65;;
13891;SDS011;7016;48.172;8.058;2023-06-22T09:19:09;18.23;;;9.10;;
13891;SDS011;7016;48.172;8.058;2023-06-22T09:21:55;22.02;;;9.07;;
13891;SDS011;7016;48.172;8.058;2023-06-22T09:24:41;18.80;;;9.45;;
13891;SDS011;7016;48.172;8.058;2023-06-22T09:27:27;16.90;;;8.30;;
13891;SDS011;7016;48.172;8.058;2023-06-22T09:30:13;15.80;;;8.88;;
13891;SDS011;7016;48.172;8.058;2023-06-22T09:32:59;21.38;;;8.60;;
13891;SDS011;7016;48.172;8.058;2023-06-22T09:35:46;21.58;;;8.93;;
13891;SDS011;7016;48.172;8.058;2023-06-22T09:38:36;18.13;;;8.25;;
13891;SDS011;7016;48.172;8.058;2023-06-22T09:41:25;20.30;;;8.52;;
13891;SDS011;7016;48.172;8.058;2023-06-22T09:44:11;16.67;;;8.27;;
13891;SDS011;7016;48.172;8.058;2023-06-22T09:46:57;21.67;;;8.10;;
13891;SDS011;7016;48.172;8.058;2023-06-22T09:49:43;13.63;;;7.72;;
13891;SDS011;7016;48.172;8.058;2023-06-22T09:52:30;18.35;;;7.95;;
13891;SDS011;7016;48.172;8.058;2023-06-22T09:55:16;16.70;;;8.10;;
13891;SDS011;7016;48.172;8.058;2023-06-22T09:58:02;24.98;;;8.15;;
13891;SDS011;7016;48.172;8.058;2023-06-22T10:00:49;15.68;;;8.30;;
13891;SDS011;7016;48.172;8.058;2023-06-22T10:03:35;16.48;;;7.82;;
13891;SDS011;7016;48.172;8.058;2023-06-22T10:06:21;19.90;;;8.32;;
13891;SDS011;7016;48.172;8.058;2023-06-22T10:09:08;17.30;;;8.20;;
13891;SDS011;7016;48.172;8.058;2023-06-22T10:11:54;17.85;;;7.80;;
13891;SDS011;7016;48.172;8.058;2023-06-22T10:14:40;19.42;;;8.50;;
13891;SDS011;7016;48.172;8.058;2023-06-22T10:17:29;15.48;;;8.05;;
13891;SDS011;7016;48.172;8.058;2023-06-22T10:20:16;16.20;;;7.75;;
13891;SDS011;7016;48.172;8.058;2023-06-22T10:23:03;18.60;;;8.07;;
13891;SDS011;7016;48.172;8.058;2023-06-22T10:25:50;15.07;;;7.40;;
13891;SDS011;7016;48.172;8.058;2023-06-22T10:28:36;13.88;;;7.38;;
13891;SDS011;7016;48.172;8.058;2023-06-22T10:31:22;12.18;;;7.00;;
13891;SDS011;7016;48.172;8.058;2023-06-22T10:34:08;18.77;;;7.85;;
13891;SDS011;7016;48.172;8.058;2023-06-22T10:36:54;18.42;;;7.63;;
13891;SDS011;7016;48.172;8.058;2023-06-22T10:39:41;18.10;;;7.35;;
13891;SDS011;7016;48.172;8.058;2023-06-22T10:42:27;17.23;;;7.55;;
13891;SDS011;7016;48.172;8.058;2023-06-22T10:45:13;17.60;;;7.85;;
13891;SDS011;7016;48.172;8.058;2023-06-22T10:47:59;17.73;;;7.65;;
13891;SDS011;7016;48.172;8.058;2023-06-22T10:50:46;15.77;;;8.05;;
13891;SDS011;7016;48.172;8.058;2023-06-22T10:53:32;17.10;;;7.97;;
13891;SDS011;7016;48.172;8.058;2023-06-22T10:56:19;17.60;;;7.90;;
13891;SDS011;7016;48.172;8.058;2023-06-22T10:59:05;16.02;;;8.30;;
13891;SDS011;7016;48.172;8.058;2023-06-22T11:01:51;18.88;;;7.80;;
13891;SDS011;7016;48.172;8.058;2023-06-22T11:04:38;15.25;;;8.32;;
13891;SDS011;7016;48.172;8.058;2023-06-22T11:07:24;16.85;;;7.93;;
13891;SDS011;7016;48.172;8.058;2023-06-22T11:10:12;16.00;;;7.15;;
13891;SDS011;7016;48.172;8.058;2023-06-22T11:12:58;20.70;;;7.82;;
13891;SDS011;7016;48.172;8.058;2023-06-22T11:15:45;16.42;;;7.25;;
13891;SDS011;7016;48.172;8.058;2023-06-22T11:18:31;18.13;;;8.45;;
13891;SDS011;7016;48.172;8.058;2023-06-22T11:21:19;21.67;;;8.50;;
13891;SDS011;7016;48.172;8.058;2023-06-22T11:24:05;17.67;;;7.72;;
13891;SDS011;7016;48.172;8.058;2023-06-22T11:26:51;21.33;;;8.55;;
13891;SDS011;7016;48.172;8.058;2023-06-22T11:29:37;16.80;;;8.20;;
13891;SDS011;7016;48.172;8.058;2023-06-22T11:32:25;23.63;;;8.13;;
13891;SDS011;7016;48.172;8.058;2023-06-22T11:35:11;17.33;;;7.97;;
13891;SDS011;7016;48.172;8.058;2023-06-22T11:37:57;19.05;;;7.05;;
13891;SDS011;7016;48.172;8.058;2023-06-22T11:40:43;15.18;;;7.85;;
13891;SDS011;7016;48.172;8.058;2023-06-22T11:43:30;17.50;;;7.40;;
13891;SDS011;7016;48.172;8.058;2023-06-22T11:46:16;20.33;;;7.50;;
13891;SDS011;7016;48.172;8.058;2023-06-22T11:49:02;15.95;;;7.32;;
13891;SDS011;7016;48.172;8.058;2023-06-22T11:51:48;15.75;;;7.22;;
13891;SDS011;7016;48.172;8.058;2023-06-22T11:54:34;18.52;;;7.32;;
13891;SDS011;7016;48.172;8.058;2023-06-22T11:57:21;25.17;;;6.82;;
13891;SDS011;7016;48.172;8.058;2023-06-22T12:00:07;15.57;;;6.45;;
13891;SDS011;7016;48.172;8.058;2023-06-22T12:03:01;20.38;;;7.57;;
13891;SDS011;7016;48.172;8.058;2023-06-22T12:05:47;15.60;;;7.25;;
13891;SDS011;7016;48.172;8.058;2023-06-22T12:08:34;23.48;;;7.45;;
13891;SDS011;7016;48.172;8.058;2023-06-22T12:11:21;19.85;;;7.28;;
13891;SDS011;7016;48.172;8.058;2023-06-22T12:14:07;16.42;;;6.57;;
13891;SDS011;7016;48.172;8.058;2023-06-22T12:16:53;19.85;;;6.65;;
13891;SDS011;7016;48.172;8.058;2023-06-22T12:19:39;18.60;;;6.82;;
13891;SDS011;7016;48.172;8.058;2023-06-22T12:22:25;17.98;;;6.90;;
13891;SDS011;7016;48.172;8.058;2023-06-22T12:25:11;18.10;;;7.20;;
13891;SDS011;7016;48.172;8.058;2023-06-22T12:27:58;15.60;;;6.63;;
13891;SDS011;7016;48.172;8.058;2023-06-22T12:30:44;17.00;;;7.13;;
13891;SDS011;7016;48.172;8.058;2023-06-22T12:33:30;19.85;;;6.65;;
13891;SDS011;7016;48.172;8.058;2023-06-22T12:36:16;18.50;;;6.63;;
13891;SDS011;7016;48.172;8.058;2023-06-22T12:39:02;16.90;;;6.53;;
13891;SDS011;7016;48.172;8.058;2023-06-22T12:41:48;18.17;;;6.32;;
13891;SDS011;7016;48.172;8.058;2023-06-22T12:44:35;19.80;;;6.72;;
13891;SDS011;7016;48.172;8.058;2023-06-22T12:47:22;21.13;;;7.03;;
13891;SDS011;7016;48.172;8.058;2023-06-22T12:50:09;18.38;;;6.40;;
13891;SDS011;7016;48.172;8.058;2023-06-22T12:52:55;20.85;;;6.82;;
13891;SDS011;7016;48.172;8.058;2023-06-22T12:55:41;24.38;;;6.70;;
13891;SDS011;7016;48.172;8.058;2023-06-22T12:58:27;15.35;;;6.15;;
13891;SDS011;7016;48.172;8.058;2023-06-22T13:01:13;16.95;;;6.75;;
13891;SDS011;7016;48.172;8.058;2023-06-22T13:04:00;23.98;;;7.13;;
13891;SDS011;7016;48.172;8.058;2023-06-22T13:06:46;21.65;;;7.20;;
13891;SDS011;7016;48.172;8.058;2023-06-22T13:09:33;20.05;;;6.85;;
13891;SDS011;7016;48.172;8.058;2023-06-22T13:12:20;18.80;;;6.90;;
13891;SDS011;7016;48.172;8.058;2023-06-22T13:15:06;22.55;;;7.80;;
13891;SDS011;7016;48.172;8.058;2023-06-22T13:17:53;21.15;;;7.05;;
13891;SDS011;7016;48.172;8.058;2023-06-22T13:20:39;17.77;;;7.60;;
13891;SDS011;7016;48.172;8.058;2023-06-22T13:23:26;16.35;;;7.05;;
13891;SDS011;7016;48.172;8.058;2023-06-22T13:26:12;19.42;;;7.47;;
13891;SDS011;7016;48.172;8.058;2023-06-22T13:28:58;14.13;;;7.28;;
13891;SDS011;7016;48.172;8.058;2023-06-22T13:31:44;24.40;;;7.90;;
13891;SDS011;7016;48.172;8.058;2023-06-22T13:34:30;20.45;;;7.20;;
13891;SDS011;7016;48.172;8.058;2023-06-22T13:37:17;22.50;;;7.47;;
13891;SDS011;7016;48.172;8.058;2023-06-22T13:40:04;29.13;;;7.50;;
13891;SDS011;7016;48.172;8.058;2023-06-22T13:42:52;19.50;;;7.63;;
13891;SDS011;7016;48.172;8.058;2023-06-22T13:45:38;23.63;;;7.40;;
13891;SDS011;7016;48.172;8.058;2023-06-22T13:48:24;18.63;;;7.03;;
13891;SDS011;7016;48.172;8.058;2023-06-22T13:51:11;20.30;;;7.60;;
13891;SDS011;7016;48.172;8.058;2023-06-22T13:53:58;22.48;;;7.07;;
13891;SDS011;7016;48.172;8.058;2023-06-22T13:56:44;22.35;;;7.22;;
13891;SDS011;7016;48.172;8.058;2023-06-22T13:59:30;23.58;;;6.75;;
13891;SDS011;7016;48.172;8.058;2023-06-22T14:02:16;22.52;;;7.15;;
13891;SDS011;7016;48.172;8.058;2023-06-22T14:05:03;27.98;;;7.18;;
13891;SDS011;7016;48.172;8.058;2023-06-22T14:07:49;21.35;;;7.38;;
13891;SDS011;7016;48.172;8.058;2023-06-22T14:10:35;20.98;;;6.80;;
13891;SDS011;7016;48.172;8.058;2023-06-22T14:13:21;21.17;;;6.78;;
13891;SDS011;7016;48.172;8.058;2023-06-22T14:16:08;25.65;;;7.03;;
13891;SDS011;7016;48.172;8.058;2023-06-22T14:18:54;21.30;;;7.15;;
13891;SDS011;7016;48.172;8.058;2023-06-22T14:21:40;18.45;;;6.57;;
13891;SDS011;7016;48.172;8.058;2023-06-22T14:24:26;24.25;;;6.63;;
13891;SDS011;7016;48.172;8.058;2023-06-22T14:27:13;20.33;;;5.90;;
13891;SDS011;7016;48.172;8.058;2023-06-22T14:29:59;19.95;;;6.65;;
13891;SDS011;7016;48.172;8.058;2023-06-22T14:32:45;17.52;;;6.43;;
13891;SDS011;7016;48.172;8.058;2023-06-22T14:35:31;17.75;;;6.05;;
13891;SDS011;7016;48.172;8.058;2023-06-22T14:38:17;21.30;;;6.45;;
13891;SDS011;7016;48.172;8.058;2023-06-22T14:41:05;19.00;;;6.30;;
13891;SDS011;7016;48.172;8.058;2023-06-22T14:43:56;24.20;;;7.10;;
13891;SDS011;7016;48.172;8.058;2023-06-22T14:46:42;26.52;;;6.82;;
13891;SDS011;7016;48.172;8.058;2023-06-22T14:49:28;20.98;;;6.55;;
13891;SDS011;7016;48.172;8.058;2023-06-22T14:52:15;22.38;;;6.30;;
13891;SDS011;7016;48.172;8.058;2023-06-22T14:55:01;26.48;;;6.75;;
13891;SDS011;7016;48.172;8.058;2023-06-22T14:57:47;20.80;;;6.05;;
13891;SDS011;7016;48.172;8.058;2023-06-22T15:00:33;21.35;;;6.30;;
13891;SDS011;7016;48.172;8.058;2023-06-22T15:03:19;20.40;;;5.85;;
13891;SDS011;7016;48.172;8.058;2023-06-22T15:06:11;21.08;;;6.45;;
13891;SDS011;7016;48.172;8.058;2023-06-22T15:08:57;16.70;;;6.10;;
13891;SDS011;7016;48.172;8.058;2023-06-22T15:11:43;18.05;;;6.47;;
13891;SDS011;7016;48.172;8.058;2023-06-22T15:14:30;15.57;;;6.00;;
13891;SDS011;7016;48.172;8.058;2023-06-22T15:17:16;22.58;;;6.40;;
13891;SDS011;7016;48.172;8.058;2023-06-22T15:20:02;25.58;;;6.50;;
13891;SDS011;7016;48.172;8.058;2023-06-22T15:22:50;22.13;;;6.05;;
13891;SDS011;7016;48.172;8.058;2023-06-22T15:25:36;20.33;;;5.65;;
13891;SDS011;7016;48.172;8.058;2023-06-22T15:28:23;16.05;;;6.15;;
13891;SDS011;7016;48.172;8.058;2023-06-22T15:31:09;23.38;;;6.25;;
13891;SDS011;7016;48.172;8.058;2023-06-22T15:33:56;20.65;;;5.97;;
13891;SDS011;7016;48.172;8.058;2023-06-22T15:36:42;16.35;;;5.38;;
13891;SDS011;7016;48.172;8.058;2023-06-22T15:39:28;19.75;;;5.68;;
13891;SDS011;7016;48.172;8.058;2023-06-22T15:42:14;19.75;;;5.68;;
13891;SDS011;7016;48.172;8.058;2023-06-22T15:45:00;17.17;;;5.35;;
13891;SDS011;7016;48.172;8.058;2023-06-22T15:47:46;20.85;;;4.97;;
13891;SDS011;7016;48.172;8.058;2023-06-22T15:50:33;16.90;;;4.78;;
13891;SDS011;7016;48.172;8.058;2023-06-22T15:53:19;21.27;;;5.30;;
13891;SDS011;7016;48.172;8.058;2023-06-22T15:56:05;16.05;;;4.45;;
13891;SDS011;7016;48.172;8.058;2023-06-22T15:58:54;14.00;;;4.40;;
13891;SDS011;7016;48.172;8.058;2023-06-22T16:01:42;15.95;;;4.80;;
13891;SDS011;7016;48.172;8.058;2023-06-22T16:04:28;19.58;;;4.60;;
13891;SDS011;7016;48.172;8.058;2023-06-22T16:07:14;13.07;;;4.22;;
13891;SDS011;7016;48.172;8.058;2023-06-22T16:10:00;19.30;;;4.75;;
13891;SDS011;7016;48.172;8.058;2023-06-22T16:12:47;15.25;;;4.50;;
13891;SDS011;7016;48.172;8.058;2023-06-22T16:15:34;12.68;;;4.45;;
13891;SDS011;7016;48.172;8.058;2023-06-22T16:18:21;14.73;;;4.55;;
13891;SDS011;7016;48.172;8.058;2023-06-22T16:21:07;15.15;;;4.57;;
13891;SDS011;7016;48.172;8.058;2023-06-22T16:23:53;13.88;;;4.63;;
13891;SDS011;7016;48.172;8.058;2023-06-22T16:26:40;17.48;;;4.72;;
13891;SDS011;7016;48.172;8.058;2023-06-22T16:29:27;15.60;;;4.43;;
13891;SDS011;7016;48.172;8.058;2023-06-22T16:32:13;15.63;;;4.47;;
13891;SDS011;7016;48.172;8.058;2023-06-22T16:35:00;19.65;;;4.45;;
13891;SDS011;7016;48.172;8.058;2023-06-22T16:37:47;16.42;;;4.90;;
13891;SDS011;7016;48.172;8.058;2023-06-22T16:40:33;12.50;;;4.25;;
13891;SDS011;7016;48.172;8.058;2023-06-22T16:43:19;13.55;;;5.10;;
13891;SDS011;7016;48.172;8.058;2023-06-22T16:46:07;16.33;;;4.55;;
13891;SDS011;7016;48.172;8.058;2023-06-22T16:48:54;22.60;;;4.80;;
13891;SDS011;7016;48.172;8.058;2023-06-22T16:51:40;15.75;;;4.65;;
13891;SDS011;7016;48.172;8.058;2023-06-22T16:54:28;17.40;;;5.13;;